createdAt,value
2019-05-15T00:00:34.386Z,8.34
2019-05-15T00:01:34.366Z,8.30
2019-05-15T00:02:34.347Z,8.22
2019-05-15T00:03:34.340Z,8.20
2019-05-15T00:04:34.345Z,8.22
2019-05-15T00:05:34.343Z,8.22
2019-05-15T00:06:34.304Z,8.22
2019-05-15T00:07:34.294Z,8.23
2019-05-15T00:08:34.281Z,8.19
2019-05-15T00:09:34.291Z,8.25
2019-05-15T00:10:34.277Z,8.10
2019-05-15T00:11:34.249Z,8.15
2019-05-15T00:12:34.262Z,8.15
2019-05-15T00:13:34.227Z,8.10
2019-05-15T00:14:34.220Z,8.12
2019-05-15T00:15:34.226Z,8.16
2019-05-15T00:16:34.210Z,8.04
2019-05-15T00:17:34.189Z,7.97
2019-05-15T00:18:34.170Z,8.04
2019-05-15T00:19:34.184Z,7.97
2019-05-15T00:20:34.192Z,7.97
2019-05-15T00:21:34.138Z,7.98
2019-05-15T00:22:34.128Z,8.08
2019-05-15T00:23:34.142Z,8.02
2019-05-15T00:24:34.113Z,8.00
2019-05-15T00:25:34.097Z,7.87
2019-05-15T00:26:34.098Z,7.95
2019-05-15T00:27:34.077Z,8.04
2019-05-15T00:28:34.071Z,8.01
2019-05-15T00:29:34.050Z,7.95
2019-05-15T00:30:34.055Z,8.01
2019-05-15T00:31:34.047Z,7.93
2019-05-15T00:32:34.028Z,8.04
2019-05-15T00:33:34.008Z,8.02
2019-05-15T00:34:33.994Z,7.97
2019-05-15T00:35:33.998Z,7.95
2019-05-15T00:36:33.992Z,7.97
2019-05-15T00:37:33.975Z,7.92
2019-05-15T00:38:33.956Z,7.89
2019-05-15T00:39:33.954Z,7.86
2019-05-15T00:40:33.930Z,7.83
2019-05-15T00:41:46.649Z,7.79
2019-05-15T00:42:34.915Z,7.87
2019-05-15T00:43:33.905Z,7.89
2019-05-15T00:44:33.888Z,7.83
2019-05-15T00:45:33.890Z,7.83
2019-05-15T00:46:33.885Z,7.89
2019-05-15T00:47:33.857Z,7.86
2019-05-15T00:48:33.841Z,7.87
2019-05-15T00:49:33.833Z,7.87
2019-05-15T00:50:33.834Z,7.80
2019-05-15T00:51:33.826Z,7.83
2019-05-15T00:52:33.806Z,7.83
2019-05-15T00:53:33.789Z,7.83
2019-05-15T00:54:33.801Z,7.85
2019-05-15T00:55:33.767Z,7.87
2019-05-15T00:56:33.790Z,7.89
2019-05-15T00:57:33.749Z,7.87
2019-05-15T00:58:33.745Z,7.86
2019-05-15T00:59:33.720Z,7.79
2019-05-15T01:00:33.708Z,7.75
2019-05-15T01:01:33.716Z,7.80
2019-05-15T01:02:33.687Z,7.79
2019-05-15T01:03:33.671Z,7.77
2019-05-15T01:04:33.664Z,7.72
2019-05-15T01:05:33.653Z,7.74
2019-05-15T01:06:33.673Z,7.72
2019-05-15T01:07:33.642Z,7.74
2019-05-15T01:08:33.639Z,7.69
2019-05-15T01:09:33.610Z,7.64
2019-05-15T01:10:33.599Z,7.75
2019-05-15T01:11:33.592Z,7.74
2019-05-15T01:12:33.622Z,7.75
2019-05-15T01:13:33.564Z,7.61
2019-05-15T01:14:33.559Z,7.67
2019-05-15T01:15:33.545Z,7.67
2019-05-15T01:16:33.533Z,7.68
2019-05-15T01:17:33.537Z,7.67
2019-05-15T01:18:33.518Z,7.64
2019-05-15T01:19:33.502Z,7.55
2019-05-15T01:20:33.490Z,7.50
2019-05-15T01:21:33.486Z,7.49
2019-05-15T01:22:33.499Z,7.60
2019-05-15T01:23:33.464Z,7.53
2019-05-15T01:24:33.452Z,7.57
2019-05-15T01:25:33.443Z,7.55
2019-05-15T01:26:33.429Z,7.53
2019-05-15T01:27:33.412Z,7.52
2019-05-15T01:28:33.421Z,7.55
2019-05-15T01:29:41.868Z,7.58
2019-05-15T01:30:34.380Z,7.52
2019-05-15T01:31:33.377Z,7.49
2019-05-15T01:32:33.358Z,7.48
2019-05-15T01:33:33.401Z,7.49
2019-05-15T01:34:33.339Z,7.50
2019-05-15T01:35:33.340Z,7.49
2019-05-15T01:36:33.318Z,7.46
2019-05-15T01:37:33.314Z,7.55
2019-05-15T01:38:33.311Z,7.53
2019-05-15T01:39:33.292Z,7.49
2019-05-15T01:40:33.283Z,7.49
2019-05-15T01:41:33.260Z,7.40
2019-05-15T01:42:33.251Z,7.46
2019-05-15T01:43:33.255Z,7.43
2019-05-15T01:44:33.226Z,7.45
2019-05-15T01:45:33.219Z,7.43
2019-05-15T01:46:33.213Z,7.39
2019-05-15T01:47:33.199Z,7.48
2019-05-15T01:48:33.199Z,7.37
2019-05-15T01:49:33.176Z,7.35
2019-05-15T01:50:33.161Z,7.40
2019-05-15T01:51:33.157Z,7.37
2019-05-15T01:52:33.141Z,7.39
2019-05-15T01:53:33.149Z,7.35
2019-05-15T01:54:33.116Z,7.34
2019-05-15T01:55:33.115Z,7.28
2019-05-15T01:56:33.103Z,7.27
2019-05-15T01:57:33.087Z,7.27
2019-05-15T01:58:33.096Z,7.31
2019-05-15T01:59:33.094Z,7.30
2019-05-15T02:00:33.061Z,7.21
2019-05-15T02:01:33.104Z,7.30
2019-05-15T02:02:33.032Z,7.28
2019-05-15T02:03:33.021Z,7.31
2019-05-15T02:04:33.046Z,7.24
2019-05-15T02:05:32.997Z,7.21
2019-05-15T02:06:32.987Z,7.24
2019-05-15T02:07:32.978Z,7.24
2019-05-15T02:08:32.980Z,7.21
2019-05-15T02:09:32.998Z,7.15
2019-05-15T02:10:32.947Z,7.23
2019-05-15T02:11:32.962Z,7.16
2019-05-15T02:12:32.931Z,7.21
2019-05-15T02:13:32.929Z,7.17
2019-05-15T02:14:32.928Z,7.15
2019-05-15T02:15:32.900Z,7.16
2019-05-15T02:16:32.886Z,7.09
2019-05-15T02:17:32.880Z,7.09
2019-05-15T02:18:32.877Z,7.05
2019-05-15T02:19:32.886Z,7.09
2019-05-15T02:20:32.838Z,7.09
2019-05-15T02:21:32.828Z,6.99
2019-05-15T02:22:32.816Z,7.16
2019-05-15T02:23:32.803Z,7.09
2019-05-15T02:24:32.806Z,7.02
2019-05-15T02:25:32.776Z,7.10
2019-05-15T02:26:32.771Z,7.09
2019-05-15T02:27:32.756Z,6.99
2019-05-15T02:28:32.765Z,7.09
2019-05-15T02:29:32.750Z,6.97
2019-05-15T02:30:34.036Z,7.13
2019-05-15T02:31:32.712Z,7.06
2019-05-15T02:32:32.705Z,7.02
2019-05-15T02:33:32.702Z,6.97
2019-05-15T02:34:32.697Z,6.95
2019-05-15T02:35:32.705Z,7.07
2019-05-15T02:36:32.666Z,6.89
2019-05-15T02:37:32.650Z,6.97
2019-05-15T02:38:32.635Z,7.03
2019-05-15T02:39:32.652Z,6.94
2019-05-15T02:40:32.613Z,6.92
2019-05-15T02:41:32.613Z,7.03
2019-05-15T02:42:32.593Z,6.92
2019-05-15T02:43:32.584Z,7.03
2019-05-15T02:44:32.599Z,6.95
2019-05-15T02:45:36.459Z,6.81
2019-05-15T02:46:33.555Z,6.91
2019-05-15T02:47:32.557Z,6.85
2019-05-15T02:48:32.545Z,6.80
2019-05-15T02:49:32.513Z,6.84
2019-05-15T02:50:32.536Z,6.87
2019-05-15T02:51:32.513Z,6.84
2019-05-15T02:52:32.500Z,6.84
2019-05-15T02:53:32.477Z,6.85
2019-05-15T02:54:32.477Z,6.84
2019-05-15T02:55:32.481Z,6.84
2019-05-15T02:56:32.439Z,6.84
2019-05-15T02:57:32.429Z,6.87
2019-05-15T02:58:32.425Z,6.87
2019-05-15T02:59:32.417Z,6.88
2019-05-15T03:00:41.771Z,6.84
2019-05-15T03:01:33.407Z,6.85
2019-05-15T03:02:32.371Z,6.89
2019-05-15T03:03:32.362Z,6.84
2019-05-15T03:04:32.399Z,6.80
2019-05-15T03:05:32.359Z,6.85
2019-05-15T03:06:32.329Z,6.80
2019-05-15T03:07:32.320Z,6.76
2019-05-15T03:08:32.308Z,6.84
2019-05-15T03:09:32.292Z,6.79
2019-05-15T03:10:32.324Z,6.80
2019-05-15T03:11:32.287Z,6.84
2019-05-15T03:12:32.297Z,6.71
2019-05-15T03:13:32.258Z,6.76
2019-05-15T03:14:32.257Z,6.74
2019-05-15T03:15:32.254Z,6.67
2019-05-15T03:16:32.239Z,6.77
2019-05-15T03:17:32.231Z,6.76
2019-05-15T03:18:32.195Z,6.69
2019-05-15T03:19:32.200Z,6.74
2019-05-15T03:20:32.200Z,6.67
2019-05-15T03:21:32.198Z,6.66
2019-05-15T03:22:32.161Z,6.67
2019-05-15T03:23:32.140Z,6.69
2019-05-15T03:24:32.129Z,6.69
2019-05-15T03:25:32.122Z,6.70
2019-05-15T03:26:32.120Z,6.70
2019-05-15T03:27:34.766Z,6.69
2019-05-15T03:28:32.116Z,6.67
2019-05-15T03:29:32.088Z,6.62
2019-05-15T03:30:50.742Z,6.61
2019-05-15T03:31:50.370Z,6.66
2019-05-15T03:32:42.797Z,6.67
2019-05-15T03:33:36.694Z,6.64
2019-05-15T03:34:38.016Z,6.67
2019-05-15T03:35:33.481Z,6.67
2019-05-15T03:36:32.423Z,6.70
2019-05-15T03:37:33.969Z,6.64
2019-05-15T03:38:31.976Z,6.69
2019-05-15T03:39:31.974Z,6.59
2019-05-15T03:40:31.950Z,6.64
2019-05-15T03:41:31.956Z,6.54
2019-05-15T03:42:31.931Z,6.59
2019-05-15T03:43:31.927Z,6.64
2019-05-15T03:44:31.908Z,6.54
2019-05-15T03:45:31.909Z,6.58
2019-05-15T03:46:31.901Z,6.55
2019-05-15T03:47:31.879Z,6.52
2019-05-15T03:48:31.887Z,6.54
2019-05-15T03:49:31.864Z,6.61
2019-05-15T03:50:31.854Z,6.52
2019-05-15T03:51:31.855Z,6.52
2019-05-15T03:52:31.837Z,6.55
2019-05-15T03:53:31.810Z,6.48
2019-05-15T03:54:31.798Z,6.48
2019-05-15T03:55:31.786Z,6.49
2019-05-15T03:56:31.772Z,6.59
2019-05-15T03:57:31.801Z,6.59
2019-05-15T03:58:31.756Z,6.49
2019-05-15T03:59:31.745Z,6.49
2019-05-15T04:00:31.735Z,6.49
2019-05-15T04:01:38.435Z,6.54
2019-05-15T04:02:32.742Z,6.52
2019-05-15T04:03:31.712Z,6.48
2019-05-15T04:04:31.723Z,6.52
2019-05-15T04:05:31.684Z,6.58
2019-05-15T04:06:31.687Z,6.55
2019-05-15T04:07:31.693Z,6.52
2019-05-15T04:08:31.646Z,6.48
2019-05-15T04:09:31.642Z,6.52
2019-05-15T04:10:31.627Z,6.56
2019-05-15T04:11:31.611Z,6.49
2019-05-15T04:12:31.656Z,6.55
2019-05-15T04:13:31.612Z,6.48
2019-05-15T04:14:31.588Z,6.48
2019-05-15T04:15:31.570Z,6.62
2019-05-15T04:16:31.560Z,6.54
2019-05-15T04:17:31.564Z,6.58
2019-05-15T04:18:31.537Z,6.55
2019-05-15T04:19:31.519Z,6.55
2019-05-15T04:20:31.509Z,6.56
2019-05-15T04:21:31.513Z,6.55
2019-05-15T04:22:31.510Z,6.56
2019-05-15T04:23:31.494Z,6.52
2019-05-15T04:24:31.470Z,6.52
2019-05-15T04:25:31.458Z,6.54
2019-05-15T04:26:31.474Z,6.52
2019-05-15T04:27:31.458Z,6.55
2019-05-15T04:28:31.468Z,6.58
2019-05-15T04:29:31.411Z,6.55
2019-05-15T04:30:31.429Z,6.54
2019-05-15T04:31:49.834Z,6.59
2019-05-15T04:32:32.396Z,6.58
2019-05-15T04:33:31.381Z,6.52
2019-05-15T04:34:31.360Z,6.59
2019-05-15T04:35:31.359Z,6.51
2019-05-15T04:36:31.373Z,6.56
2019-05-15T04:37:31.321Z,6.59
2019-05-15T04:38:31.348Z,6.59
2019-05-15T04:39:31.296Z,6.58
2019-05-15T04:40:31.325Z,6.51
2019-05-15T04:41:31.287Z,6.55
2019-05-15T04:42:31.272Z,6.64
2019-05-15T04:43:39.769Z,6.66
2019-05-15T04:44:32.291Z,6.67
2019-05-15T04:45:34.919Z,6.71
2019-05-15T04:46:31.230Z,6.71
2019-05-15T04:47:31.222Z,6.74
2019-05-15T04:48:31.230Z,6.59
2019-05-15T04:49:31.226Z,6.71
2019-05-15T04:50:31.186Z,6.69
2019-05-15T04:51:31.166Z,6.76
2019-05-15T04:52:31.170Z,6.70
2019-05-15T04:53:33.326Z,6.73
2019-05-15T04:54:31.130Z,6.66
2019-05-15T04:55:31.179Z,6.67
2019-05-15T04:56:31.127Z,6.71
2019-05-15T04:57:34.086Z,6.77
2019-05-15T04:58:31.087Z,6.70
2019-05-15T04:59:31.093Z,6.77
2019-05-15T05:00:31.074Z,6.77
2019-05-15T05:01:31.065Z,6.77
2019-05-15T05:02:32.195Z,6.87
2019-05-15T05:03:34.409Z,6.89
2019-05-15T05:04:31.072Z,6.85
2019-05-15T05:05:31.025Z,6.81
2019-05-15T05:06:30.997Z,6.95
2019-05-15T05:07:31.000Z,6.95
2019-05-15T05:08:30.996Z,6.99
2019-05-15T05:09:30.974Z,7.05
2019-05-15T05:10:30.991Z,6.95
2019-05-15T05:11:30.963Z,7.10
2019-05-15T05:12:30.934Z,7.07
2019-05-15T05:13:30.934Z,7.06
2019-05-15T05:14:30.928Z,7.06
2019-05-15T05:15:30.917Z,7.15
2019-05-15T05:16:30.920Z,7.21
2019-05-15T05:17:30.877Z,7.12
2019-05-15T05:18:30.876Z,7.23
2019-05-15T05:19:30.870Z,7.31
2019-05-15T05:20:30.866Z,7.31
2019-05-15T05:21:30.835Z,7.34
2019-05-15T05:22:30.822Z,7.39
2019-05-15T05:23:30.833Z,7.43
2019-05-15T05:24:30.843Z,7.50
2019-05-15T05:25:30.788Z,7.48
2019-05-15T05:26:30.804Z,7.50
2019-05-15T05:27:30.770Z,7.61
2019-05-15T05:28:30.756Z,7.61
2019-05-15T05:29:30.783Z,7.75
2019-05-15T05:30:30.732Z,7.67
2019-05-15T05:31:30.752Z,7.74
2019-05-15T05:32:34.806Z,7.80
2019-05-15T05:33:30.699Z,7.83
2019-05-15T05:34:30.721Z,7.87
2019-05-15T05:35:30.699Z,7.93
2019-05-15T05:36:30.683Z,7.93
2019-05-15T05:37:30.675Z,7.97
2019-05-15T05:38:30.649Z,8.02
2019-05-15T05:39:30.671Z,8.02
2019-05-15T05:40:30.648Z,7.98
2019-05-15T05:41:30.627Z,8.07
2019-05-15T05:42:30.600Z,8.11
2019-05-15T05:43:30.602Z,8.18
2019-05-15T05:44:30.583Z,8.20
2019-05-15T05:45:30.594Z,8.25
2019-05-15T05:46:30.565Z,8.19
2019-05-15T05:47:30.554Z,8.38
2019-05-15T05:48:30.552Z,8.33
2019-05-15T05:49:30.537Z,8.30
2019-05-15T05:50:30.517Z,8.33
2019-05-15T05:51:30.521Z,8.41
2019-05-15T05:52:30.502Z,8.44
2019-05-15T05:53:30.482Z,8.48
2019-05-15T05:54:30.471Z,8.56
2019-05-15T05:55:30.465Z,8.68
2019-05-15T05:56:30.494Z,8.62
2019-05-15T05:57:30.439Z,8.61
2019-05-15T05:58:30.457Z,8.73
2019-05-15T05:59:30.415Z,8.74
2019-05-15T06:00:30.404Z,8.80
2019-05-15T06:01:30.415Z,8.83
2019-05-15T06:02:43.674Z,8.95
2019-05-15T06:03:31.368Z,9.01
2019-05-15T06:04:30.363Z,9.01
2019-05-15T06:05:30.375Z,9.13
2019-05-15T06:06:30.362Z,9.18
2019-05-15T06:07:30.346Z,9.26
2019-05-15T06:08:30.322Z,9.32
2019-05-15T06:09:30.327Z,9.32
2019-05-15T06:10:30.298Z,9.38
2019-05-15T06:11:30.307Z,9.42
2019-05-15T06:12:30.295Z,9.50
2019-05-15T06:13:30.262Z,9.54
2019-05-15T06:14:30.272Z,9.53
2019-05-15T06:15:30.242Z,9.71
2019-05-15T06:16:30.279Z,9.64
2019-05-15T06:17:30.217Z,9.66
2019-05-15T06:18:30.211Z,9.74
2019-05-15T06:19:31.461Z,9.71
2019-05-15T06:20:30.181Z,9.74
2019-05-15T06:21:30.187Z,9.76
2019-05-15T06:22:30.184Z,9.84
2019-05-15T06:23:34.632Z,9.89
2019-05-15T06:24:31.139Z,10.04
2019-05-15T06:25:30.648Z,9.99
2019-05-15T06:26:30.130Z,10.09
2019-05-15T06:27:30.105Z,10.22
2019-05-15T06:28:30.111Z,10.23
2019-05-15T06:29:30.085Z,10.29
2019-05-15T06:30:30.892Z,10.36
2019-05-15T06:31:30.083Z,10.30
2019-05-15T06:32:30.053Z,10.40
2019-05-15T06:33:30.044Z,10.48
2019-05-15T06:34:30.032Z,10.48
2019-05-15T06:35:31.287Z,10.61
2019-05-15T06:36:30.016Z,10.66
2019-05-15T06:37:30.014Z,10.66
2019-05-15T06:38:31.038Z,10.70
2019-05-15T06:39:29.972Z,10.81
2019-05-15T06:40:29.969Z,10.82
2019-05-15T06:41:29.952Z,10.85
2019-05-15T06:42:29.956Z,10.91
2019-05-15T06:43:29.943Z,10.97
2019-05-15T06:44:29.931Z,10.97
2019-05-15T06:45:29.911Z,11.11
2019-05-15T06:46:29.896Z,11.10
2019-05-15T06:47:29.917Z,11.10
2019-05-15T06:48:29.871Z,11.19
2019-05-15T06:49:29.867Z,11.32
2019-05-15T06:50:29.853Z,11.35
2019-05-15T06:51:29.841Z,11.29
2019-05-15T06:52:29.850Z,11.21
2019-05-15T06:53:29.828Z,11.39
2019-05-15T06:54:29.804Z,11.40
2019-05-15T06:55:29.801Z,11.44
2019-05-15T06:56:29.794Z,11.51
2019-05-15T06:57:29.771Z,11.51
2019-05-15T06:58:29.779Z,11.52
2019-05-15T06:59:29.751Z,11.54
2019-05-15T07:00:29.747Z,11.57
2019-05-15T07:01:29.729Z,11.62
2019-05-15T07:02:29.733Z,11.65
2019-05-15T07:03:29.750Z,11.69
2019-05-15T07:04:29.697Z,11.78
2019-05-15T07:05:29.694Z,11.80
2019-05-15T07:06:29.762Z,11.94
2019-05-15T07:07:29.703Z,11.95
2019-05-15T07:08:29.672Z,12.02
2019-05-15T07:09:29.645Z,12.01
2019-05-15T07:10:29.631Z,12.05
2019-05-15T07:11:29.622Z,12.10
2019-05-15T07:12:29.611Z,12.12
2019-05-15T07:13:29.656Z,12.16
2019-05-15T07:14:29.588Z,12.13
2019-05-15T07:15:29.575Z,12.19
2019-05-15T07:16:29.592Z,12.21
2019-05-15T07:17:29.566Z,12.28
2019-05-15T07:18:29.556Z,12.23
2019-05-15T07:19:29.584Z,12.27
2019-05-15T07:20:29.536Z,12.21
2019-05-15T07:21:29.521Z,12.31
2019-05-15T07:22:29.501Z,12.21
2019-05-15T07:23:30.695Z,12.23
2019-05-15T07:24:29.491Z,12.23
2019-05-15T07:25:29.529Z,12.28
2019-05-15T07:26:29.457Z,12.21
2019-05-15T07:27:29.462Z,12.34
2019-05-15T07:28:29.468Z,12.35
2019-05-15T07:29:29.423Z,12.34
2019-05-15T07:30:29.423Z,12.46
2019-05-15T07:31:29.429Z,12.47
2019-05-15T07:32:29.391Z,12.50
2019-05-15T07:33:39.634Z,12.54
2019-05-15T07:34:30.403Z,12.67
2019-05-15T07:35:29.363Z,12.68
2019-05-15T07:36:29.357Z,12.71
2019-05-15T07:37:29.360Z,12.74
2019-05-15T07:38:29.357Z,12.83
2019-05-15T07:39:29.331Z,12.93
2019-05-15T07:40:29.907Z,12.90
2019-05-15T07:41:29.299Z,12.86
2019-05-15T07:42:29.318Z,12.92
2019-05-15T07:43:29.267Z,13.00
2019-05-15T07:44:29.307Z,12.97
2019-05-15T07:45:29.272Z,13.01
2019-05-15T07:46:29.246Z,13.14
2019-05-15T07:47:29.437Z,13.05
2019-05-15T07:48:29.355Z,13.11
2019-05-15T07:49:29.220Z,13.08
2019-05-15T07:50:29.970Z,13.08
2019-05-15T07:51:29.181Z,13.10
2019-05-15T07:52:29.204Z,13.14
2019-05-15T07:53:29.174Z,13.14
2019-05-15T07:54:29.168Z,13.15
2019-05-15T07:55:29.727Z,13.23
2019-05-15T07:56:29.128Z,13.20
2019-05-15T07:57:29.942Z,13.29
2019-05-15T07:58:29.106Z,13.33
2019-05-15T07:59:29.127Z,13.32
2019-05-15T08:00:29.079Z,13.38
2019-05-15T08:01:29.266Z,13.46
2019-05-15T08:02:29.060Z,13.39
2019-05-15T08:03:29.385Z,13.42
2019-05-15T08:04:32.363Z,13.54
2019-05-15T08:05:29.047Z,13.49
2019-05-15T08:06:29.193Z,13.64
2019-05-15T08:07:29.004Z,13.55
2019-05-15T08:08:29.270Z,13.67
2019-05-15T08:09:28.999Z,13.57
2019-05-15T08:10:28.995Z,13.59
2019-05-15T08:11:28.957Z,13.64
2019-05-15T08:12:28.946Z,13.71
2019-05-15T08:13:29.071Z,13.71
2019-05-15T08:14:29.195Z,13.81
2019-05-15T08:15:28.935Z,13.78
2019-05-15T08:16:28.928Z,13.84
2019-05-15T08:17:29.140Z,13.88
2019-05-15T08:18:28.875Z,13.87
2019-05-15T08:19:29.031Z,13.97
2019-05-15T08:20:29.013Z,14.07
2019-05-15T08:21:29.329Z,14.10
2019-05-15T08:22:28.846Z,14.12
2019-05-15T08:23:28.899Z,14.06
2019-05-15T08:24:29.857Z,14.15
2019-05-15T08:25:35.103Z,14.15
2019-05-15T08:26:29.794Z,14.21
2019-05-15T08:27:29.911Z,14.20
2019-05-15T08:28:28.930Z,14.18
2019-05-15T08:29:28.930Z,14.21
2019-05-15T08:30:28.920Z,14.24
2019-05-15T08:31:28.994Z,14.22
2019-05-15T08:32:29.458Z,14.21
2019-05-15T08:33:28.765Z,14.25
2019-05-15T08:34:28.795Z,14.18
2019-05-15T08:35:29.267Z,14.22
2019-05-15T08:36:31.249Z,14.24
2019-05-15T08:37:29.267Z,14.33
2019-05-15T08:38:29.034Z,14.22
2019-05-15T08:39:28.688Z,14.37
2019-05-15T08:40:28.725Z,14.52
2019-05-15T08:41:29.576Z,14.47
2019-05-15T08:42:31.927Z,14.50
2019-05-15T08:43:31.230Z,14.57
2019-05-15T08:44:29.345Z,14.60
2019-05-15T08:45:28.715Z,14.64
2019-05-15T08:46:28.612Z,14.58
2019-05-15T08:47:29.740Z,14.64
2019-05-15T08:48:28.550Z,14.65
2019-05-15T08:49:28.543Z,14.70
2019-05-15T08:50:28.841Z,14.75
2019-05-15T08:51:28.541Z,14.70
2019-05-15T08:52:28.516Z,14.78
2019-05-15T08:53:28.892Z,14.83
2019-05-15T08:54:29.185Z,14.81
2019-05-15T08:55:28.483Z,14.91
2019-05-15T08:56:29.042Z,14.84
2019-05-15T08:57:28.956Z,14.96
2019-05-15T08:58:29.093Z,15.02
2019-05-15T08:59:29.481Z,15.11
2019-05-15T09:00:29.459Z,15.14
2019-05-15T09:01:28.885Z,15.29
2019-05-15T09:02:28.895Z,15.28
2019-05-15T09:03:28.737Z,15.41
2019-05-15T09:04:34.654Z,15.36
2019-05-15T09:05:29.364Z,15.34
2019-05-15T09:06:29.069Z,15.49
2019-05-15T09:07:28.733Z,15.50
2019-05-15T09:08:29.403Z,15.44
2019-05-15T09:09:28.761Z,15.54
2019-05-15T09:10:28.801Z,15.47
2019-05-15T09:11:28.479Z,15.53
2019-05-15T09:12:29.439Z,15.44
2019-05-15T09:13:29.238Z,15.46
2019-05-15T09:14:28.643Z,15.53
2019-05-15T09:15:29.333Z,15.59
2019-05-15T09:16:28.255Z,15.62
2019-05-15T09:17:28.673Z,15.54
2019-05-15T09:18:28.525Z,15.59
2019-05-15T09:19:28.253Z,15.54
2019-05-15T09:20:28.787Z,15.57
2019-05-15T09:21:28.434Z,15.41
2019-05-15T09:22:29.125Z,15.47
2019-05-15T09:23:28.927Z,15.54
2019-05-15T09:24:28.701Z,15.54
2019-05-15T09:25:28.757Z,15.68
2019-05-15T09:26:28.514Z,15.65
2019-05-15T09:27:28.276Z,15.74
2019-05-15T09:28:29.715Z,15.76
2019-05-15T09:29:28.546Z,15.74
2019-05-15T09:30:28.697Z,15.78
2019-05-15T09:31:28.601Z,15.74
2019-05-15T09:32:28.542Z,15.78
2019-05-15T09:33:28.730Z,15.75
2019-05-15T09:34:45.064Z,15.83
2019-05-15T09:35:29.029Z,15.80
2019-05-15T09:36:28.866Z,15.74
2019-05-15T09:37:28.739Z,15.82
2019-05-15T09:38:28.886Z,15.83
2019-05-15T09:39:28.668Z,15.83
2019-05-15T09:40:42.441Z,15.82
2019-05-15T09:41:28.977Z,15.84
2019-05-15T09:42:28.665Z,15.87
2019-05-15T09:43:28.583Z,15.84
2019-05-15T09:44:28.369Z,15.93
2019-05-15T09:45:28.657Z,15.93
2019-05-15T09:46:29.190Z,15.97
2019-05-15T09:47:29.677Z,16.00
2019-05-15T09:48:28.630Z,15.96
2019-05-15T09:49:28.563Z,16.02
2019-05-15T09:50:28.300Z,16.01
2019-05-15T09:51:28.996Z,16.09
2019-05-15T09:52:29.926Z,16.08
2019-05-15T09:53:28.565Z,16.25
2019-05-15T09:54:29.065Z,16.25
2019-05-15T09:55:28.488Z,16.27
2019-05-15T09:56:29.077Z,16.33
2019-05-15T09:57:30.205Z,16.38
2019-05-15T09:58:30.034Z,16.38
2019-05-15T09:59:28.246Z,16.42
2019-05-15T10:00:29.275Z,16.46
2019-05-15T10:01:28.473Z,16.43
2019-05-15T10:02:28.388Z,16.42
2019-05-15T10:03:28.266Z,16.43
2019-05-15T10:04:28.670Z,16.52
2019-05-15T10:05:28.084Z,16.49
2019-05-15T10:06:28.660Z,16.49
2019-05-15T10:07:28.554Z,16.46
2019-05-15T10:08:29.214Z,16.48
2019-05-15T10:09:28.475Z,16.39
2019-05-15T10:10:28.418Z,16.46
2019-05-15T10:11:28.891Z,16.48
2019-05-15T10:12:34.550Z,16.58
2019-05-15T10:13:28.986Z,16.63
2019-05-15T10:14:29.654Z,16.67
2019-05-15T10:15:27.612Z,16.76
2019-05-15T10:16:27.585Z,16.83
2019-05-15T10:17:29.132Z,16.75
2019-05-15T10:18:28.200Z,16.75
2019-05-15T10:19:29.008Z,16.75
2019-05-15T10:20:29.171Z,16.67
2019-05-15T10:21:32.151Z,16.70
2019-05-15T10:22:28.264Z,16.64
2019-05-15T10:23:29.166Z,16.68
2019-05-15T10:24:28.051Z,16.63
2019-05-15T10:25:28.149Z,16.60
2019-05-15T10:26:28.512Z,16.57
2019-05-15T10:27:28.736Z,16.63
2019-05-15T10:28:29.354Z,16.48
2019-05-15T10:29:28.141Z,16.66
2019-05-15T10:30:28.403Z,16.60
2019-05-15T10:31:28.332Z,16.68
2019-05-15T10:32:28.998Z,16.67
2019-05-15T10:33:29.574Z,16.64
2019-05-15T10:34:28.908Z,16.75
2019-05-15T10:35:31.081Z,16.68
2019-05-15T10:36:28.008Z,16.78
2019-05-15T10:37:28.492Z,16.76
2019-05-15T10:38:28.472Z,16.78
2019-05-15T10:39:28.778Z,16.86
2019-05-15T10:40:29.561Z,16.79
2019-05-15T10:41:28.185Z,16.76
2019-05-15T10:42:28.951Z,16.82
2019-05-15T10:43:28.754Z,16.88
2019-05-15T10:44:28.552Z,16.81
2019-05-15T10:45:29.535Z,16.86
2019-05-15T10:46:27.254Z,16.98
2019-05-15T10:47:29.022Z,16.91
2019-05-15T10:48:29.244Z,17.00
2019-05-15T10:49:28.190Z,17.01
2019-05-15T10:50:28.430Z,17.07
2019-05-15T10:51:28.630Z,17.06
2019-05-15T10:52:28.731Z,17.03
2019-05-15T10:53:29.641Z,17.08
2019-05-15T10:54:29.199Z,17.16
2019-05-15T10:55:28.872Z,17.25
2019-05-15T10:56:29.170Z,17.25
2019-05-15T10:57:28.101Z,17.31
2019-05-15T10:58:28.651Z,17.30
2019-05-15T10:59:27.674Z,17.26
2019-05-15T11:00:28.571Z,17.37
2019-05-15T11:01:27.079Z,17.33
2019-05-15T11:02:28.966Z,17.36
2019-05-15T11:03:29.621Z,17.33
2019-05-15T11:04:28.839Z,17.33
2019-05-15T11:05:40.723Z,17.34
2019-05-15T11:06:28.822Z,17.37
2019-05-15T11:07:28.475Z,17.31
2019-05-15T11:08:29.052Z,17.21
2019-05-15T11:09:28.676Z,17.11
2019-05-15T11:10:28.964Z,17.03
2019-05-15T11:11:26.971Z,17.04
2019-05-15T11:12:29.286Z,17.03
2019-05-15T11:13:28.849Z,17.06
2019-05-15T11:14:28.626Z,17.01
2019-05-15T11:15:29.049Z,16.97
2019-05-15T11:16:28.202Z,17.01
2019-05-15T11:17:28.736Z,17.01
2019-05-15T11:18:30.527Z,16.94
2019-05-15T11:19:35.738Z,17.14
2019-05-15T11:20:27.916Z,17.04
2019-05-15T11:21:26.859Z,17.22
2019-05-15T11:22:29.645Z,17.25
2019-05-15T11:23:29.166Z,17.23
2019-05-15T11:24:28.239Z,17.21
2019-05-15T11:25:29.921Z,17.12
2019-05-15T11:26:33.119Z,17.07
2019-05-15T11:27:27.956Z,17.15
2019-05-15T11:28:31.630Z,17.12
2019-05-15T11:29:27.770Z,17.07
2019-05-15T11:30:26.762Z,17.01
2019-05-15T11:31:28.663Z,17.07
2019-05-15T11:32:29.199Z,17.03
2019-05-15T11:33:29.142Z,17.04
2019-05-15T11:34:28.981Z,17.07
2019-05-15T11:35:28.499Z,17.08
2019-05-15T11:36:28.760Z,17.19
2019-05-15T11:37:28.289Z,17.18
2019-05-15T11:38:28.909Z,17.28
2019-05-15T11:39:28.802Z,17.34
2019-05-15T11:40:28.389Z,17.28
2019-05-15T11:41:29.226Z,17.33
2019-05-15T11:42:28.866Z,17.36
2019-05-15T11:43:29.224Z,17.37
2019-05-15T11:44:28.265Z,17.38
2019-05-15T11:45:28.925Z,17.37
2019-05-15T11:46:29.011Z,17.34
2019-05-15T11:47:27.860Z,17.38
2019-05-15T11:48:29.573Z,17.23
2019-05-15T11:49:28.845Z,17.30
2019-05-15T11:50:29.336Z,17.15
2019-05-15T11:51:28.877Z,17.18
2019-05-15T11:52:29.214Z,17.26
2019-05-15T11:53:28.454Z,17.34
2019-05-15T11:54:28.327Z,17.28
2019-05-15T11:55:29.037Z,17.43
2019-05-15T11:56:29.335Z,17.49
2019-05-15T11:57:39.605Z,17.56
2019-05-15T11:58:28.194Z,17.56
2019-05-15T11:59:26.446Z,17.62
2019-05-15T12:00:30.003Z,17.62
2019-05-15T12:01:28.637Z,17.56
2019-05-15T12:02:29.154Z,17.62
2019-05-15T12:03:28.852Z,17.54
2019-05-15T12:04:31.133Z,17.51
2019-05-15T12:05:28.792Z,17.54
2019-05-15T12:06:28.630Z,17.64
2019-05-15T12:07:28.864Z,17.56
2019-05-15T12:08:29.055Z,17.62
2019-05-15T12:09:28.227Z,17.68
2019-05-15T12:10:28.718Z,17.62
2019-05-15T12:11:33.395Z,17.66
2019-05-15T12:12:31.751Z,17.58
2019-05-15T12:13:27.997Z,17.59
2019-05-15T12:14:29.431Z,17.52
2019-05-15T12:15:27.956Z,17.49
2019-05-15T12:16:28.806Z,17.49
2019-05-15T12:17:28.453Z,17.46
2019-05-15T12:18:28.422Z,17.54
2019-05-15T12:19:29.193Z,17.63
2019-05-15T12:20:28.577Z,17.59
2019-05-15T12:21:28.521Z,17.63
2019-05-15T12:22:28.773Z,17.58
2019-05-15T12:23:28.860Z,17.55
2019-05-15T12:24:32.865Z,17.49
2019-05-15T12:25:31.444Z,17.51
2019-05-15T12:26:28.932Z,17.48
2019-05-15T12:27:28.269Z,17.52
2019-05-15T12:28:29.284Z,17.46
2019-05-15T12:29:28.576Z,17.54
2019-05-15T12:30:29.408Z,17.49
2019-05-15T12:31:26.085Z,17.44
2019-05-15T12:33:28.978Z,17.56
2019-05-15T12:34:28.778Z,17.52
2019-05-15T12:35:26.044Z,17.62
2019-05-15T12:36:50.154Z,17.62
2019-05-15T12:37:28.490Z,17.66
2019-05-15T12:38:28.604Z,17.75
2019-05-15T12:39:29.527Z,17.64
2019-05-15T12:59:44.632Z,17.84
2019-05-15T13:00:29.670Z,17.87
2019-05-15T13:01:25.768Z,17.90
2019-05-15T13:02:27.894Z,17.82
2019-05-15T13:03:25.774Z,17.84
2019-05-15T13:04:28.291Z,17.86
2019-05-15T13:05:28.539Z,17.74
2019-05-15T13:06:28.332Z,17.75
2019-05-15T13:07:25.682Z,17.66
2019-05-15T13:08:25.716Z,17.74
2019-05-15T13:09:27.605Z,17.75
2019-05-15T13:10:25.666Z,17.71
2019-05-15T13:11:25.643Z,17.84
2019-05-15T13:12:25.646Z,17.87
2019-05-15T13:13:25.633Z,17.84
2019-05-15T13:14:28.195Z,17.84
2019-05-15T13:15:28.061Z,17.86
2019-05-15T13:16:28.006Z,17.97
2019-05-15T13:17:25.572Z,18.03
2019-05-15T13:18:25.586Z,17.96
2019-05-15T13:19:28.264Z,17.97
2019-05-15T13:20:25.592Z,17.92
2019-05-15T13:21:25.532Z,17.87
2019-05-15T13:22:25.533Z,17.86
2019-05-15T13:23:25.527Z,17.84
2019-05-15T13:24:28.150Z,17.79
2019-05-15T13:25:27.862Z,17.81